sensor_id;sensor_type;location;lat;lon;timestamp;P1;durP1;ratioP1;P2;durP2;ratioP2
70253;SDS011;57649;42.968;1.608;2023-07-13T00:00:26;5.65;;;2.40;;
70253;SDS011;57649;42.968;1.608;2023-07-13T00:02:52;5.07;;;2.05;;
70253;SDS011;57649;42.968;1.608;2023-07-13T00:05:21;6.22;;;2.10;;
70253;SDS011;57649;42.968;1.608;2023-07-13T00:07:47;6.53;;;2.03;;
70253;SDS011;57649;42.968;1.608;2023-07-13T00:10:13;3.88;;;2.28;;
70253;SDS011;57649;42.968;1.608;2023-07-13T00:12:39;3.90;;;1.88;;
70253;SDS011;57649;42.968;1.608;2023-07-13T00:15:06;3.30;;;2.05;;
70253;SDS011;57649;42.968;1.608;2023-07-13T00:17:36;4.63;;;2.28;;
70253;SDS011;57649;42.968;1.608;2023-07-13T00:20:04;5.75;;;2.13;;
70253;SDS011;57649;42.968;1.608;2023-07-13T00:22:30;4.25;;;2.25;;
70253;SDS011;57649;42.968;1.608;2023-07-13T00:24:56;4.13;;;2.05;;
70253;SDS011;57649;42.968;1.608;2023-07-13T00:27:22;4.38;;;2.08;;
70253;SDS011;57649;42.968;1.608;2023-07-13T00:29:48;4.55;;;2.10;;
70253;SDS011;57649;42.968;1.608;2023-07-13T00:32:13;2.58;;;2.08;;
70253;SDS011;57649;42.968;1.608;2023-07-13T00:34:39;3.15;;;2.05;;
70253;SDS011;57649;42.968;1.608;2023-07-13T00:37:05;3.63;;;2.03;;
70253;SDS011;57649;42.968;1.608;2023-07-13T00:39:32;2.90;;;2.00;;
70253;SDS011;57649;42.968;1.608;2023-07-13T00:41:58;5.22;;;2.15;;
70253;SDS011;57649;42.968;1.608;2023-07-13T00:44:23;5.68;;;2.17;;
70253;SDS011;57649;42.968;1.608;2023-07-13T00:46:49;5.32;;;2.33;;
70253;SDS011;57649;42.968;1.608;2023-07-13T00:49:16;3.42;;;2.25;;
70253;SDS011;57649;42.968;1.608;2023-07-13T00:51:51;8.35;;;2.40;;
70253;SDS011;57649;42.968;1.608;2023-07-13T00:54:24;3.63;;;2.30;;
70253;SDS011;57649;42.968;1.608;2023-07-13T00:56:53;5.75;;;2.10;;
70253;SDS011;57649;42.968;1.608;2023-07-13T00:59:21;4.55;;;1.95;;
70253;SDS011;57649;42.968;1.608;2023-07-13T01:01:48;4.63;;;2.30;;
70253;SDS011;57649;42.968;1.608;2023-07-13T01:04:13;3.90;;;2.38;;
70253;SDS011;57649;42.968;1.608;2023-07-13T01:06:39;4.53;;;2.00;;
70253;SDS011;57649;42.968;1.608;2023-07-13T01:09:09;3.45;;;2.67;;
70253;SDS011;57649;42.968;1.608;2023-07-13T01:11:35;4.47;;;2.35;;
70253;SDS011;57649;42.968;1.608;2023-07-13T01:14:02;4.78;;;2.40;;
70253;SDS011;57649;42.968;1.608;2023-07-13T01:16:30;4.30;;;2.20;;
70253;SDS011;57649;42.968;1.608;2023-07-13T01:18:57;3.17;;;1.75;;
70253;SDS011;57649;42.968;1.608;2023-07-13T01:21:24;3.53;;;1.90;;
70253;SDS011;57649;42.968;1.608;2023-07-13T01:23:50;4.57;;;2.10;;
70253;SDS011;57649;42.968;1.608;2023-07-13T01:26:15;5.95;;;2.00;;
70253;SDS011;57649;42.968;1.608;2023-07-13T01:28:41;4.18;;;1.73;;
70253;SDS011;57649;42.968;1.608;2023-07-13T01:31:06;2.60;;;1.80;;
70253;SDS011;57649;42.968;1.608;2023-07-13T01:33:33;3.55;;;1.98;;
70253;SDS011;57649;42.968;1.608;2023-07-13T01:35:59;6.43;;;2.00;;
70253;SDS011;57649;42.968;1.608;2023-07-13T01:38:27;3.17;;;1.98;;
70253;SDS011;57649;42.968;1.608;2023-07-13T01:40:52;3.13;;;1.90;;
70253;SDS011;57649;42.968;1.608;2023-07-13T01:43:18;4.00;;;2.10;;
70253;SDS011;57649;42.968;1.608;2023-07-13T01:45:44;5.28;;;1.90;;
70253;SDS011;57649;42.968;1.608;2023-07-13T01:48:10;7.97;;;2.13;;
70253;SDS011;57649;42.968;1.608;2023-07-13T01:50:36;3.58;;;1.70;;
70253;SDS011;57649;42.968;1.608;2023-07-13T01:53:02;3.17;;;2.00;;
70253;SDS011;57649;42.968;1.608;2023-07-13T01:55:27;5.38;;;2.22;;
70253;SDS011;57649;42.968;1.608;2023-07-13T01:57:54;4.53;;;2.35;;
70253;SDS011;57649;42.968;1.608;2023-07-13T02:00:19;3.53;;;2.10;;
70253;SDS011;57649;42.968;1.608;2023-07-13T02:02:45;4.53;;;2.28;;
70253;SDS011;57649;42.968;1.608;2023-07-13T02:05:10;3.65;;;2.05;;
70253;SDS011;57649;42.968;1.608;2023-07-13T02:07:37;2.95;;;1.70;;
70253;SDS011;57649;42.968;1.608;2023-07-13T02:10:03;2.50;;;1.85;;
70253;SDS011;57649;42.968;1.608;2023-07-13T02:12:30;3.78;;;2.42;;
70253;SDS011;57649;42.968;1.608;2023-07-13T02:14:55;4.93;;;2.40;;
70253;SDS011;57649;42.968;1.608;2023-07-13T02:17:21;5.30;;;2.17;;
70253;SDS011;57649;42.968;1.608;2023-07-13T02:19:46;5.60;;;2.50;;
70253;SDS011;57649;42.968;1.608;2023-07-13T02:22:12;4.30;;;2.40;;
70253;SDS011;57649;42.968;1.608;2023-07-13T02:24:37;3.95;;;2.20;;
70253;SDS011;57649;42.968;1.608;2023-07-13T02:27:03;4.38;;;2.30;;
70253;SDS011;57649;42.968;1.608;2023-07-13T02:29:29;5.07;;;2.38;;
70253;SDS011;57649;42.968;1.608;2023-07-13T02:31:54;3.78;;;2.42;;
70253;SDS011;57649;42.968;1.608;2023-07-13T02:34:20;5.15;;;2.42;;
70253;SDS011;57649;42.968;1.608;2023-07-13T02:36:45;4.13;;;2.55;;
70253;SDS011;57649;42.968;1.608;2023-07-13T02:39:11;4.40;;;2.30;;
70253;SDS011;57649;42.968;1.608;2023-07-13T02:41:37;6.38;;;2.30;;
70253;SDS011;57649;42.968;1.608;2023-07-13T02:44:03;5.05;;;2.17;;
70253;SDS011;57649;42.968;1.608;2023-07-13T02:46:32;3.33;;;2.08;;
70253;SDS011;57649;42.968;1.608;2023-07-13T02:48:59;7.22;;;2.42;;
70253;SDS011;57649;42.968;1.608;2023-07-13T02:51:24;5.97;;;2.10;;
70253;SDS011;57649;42.968;1.608;2023-07-13T02:53:50;4.60;;;2.20;;
70253;SDS011;57649;42.968;1.608;2023-07-13T02:56:16;6.22;;;2.30;;
70253;SDS011;57649;42.968;1.608;2023-07-13T02:58:41;3.92;;;2.45;;
70253;SDS011;57649;42.968;1.608;2023-07-13T03:01:10;3.50;;;2.17;;
70253;SDS011;57649;42.968;1.608;2023-07-13T03:03:36;4.72;;;2.33;;
70253;SDS011;57649;42.968;1.608;2023-07-13T03:06:03;3.72;;;2.22;;
70253;SDS011;57649;42.968;1.608;2023-07-13T03:08:31;7.60;;;2.75;;
70253;SDS011;57649;42.968;1.608;2023-07-13T03:11:04;4.13;;;3.00;;
70253;SDS011;57649;42.968;1.608;2023-07-13T03:13:30;4.68;;;2.40;;
70253;SDS011;57649;42.968;1.608;2023-07-13T03:15:56;6.88;;;2.17;;
70253;SDS011;57649;42.968;1.608;2023-07-13T03:18:22;4.82;;;3.00;;
70253;SDS011;57649;42.968;1.608;2023-07-13T03:20:51;5.22;;;2.67;;
70253;SDS011;57649;42.968;1.608;2023-07-13T03:23:16;4.37;;;2.80;;
70253;SDS011;57649;42.968;1.608;2023-07-13T03:25:42;3.95;;;2.63;;
70253;SDS011;57649;42.968;1.608;2023-07-13T03:28:07;5.00;;;2.40;;
70253;SDS011;57649;42.968;1.608;2023-07-13T03:30:33;7.93;;;3.05;;
70253;SDS011;57649;42.968;1.608;2023-07-13T03:32:58;4.55;;;2.70;;
70253;SDS011;57649;42.968;1.608;2023-07-13T03:35:23;3.92;;;2.35;;
70253;SDS011;57649;42.968;1.608;2023-07-13T03:37:49;4.15;;;2.35;;
70253;SDS011;57649;42.968;1.608;2023-07-13T03:40:14;6.07;;;2.50;;
70253;SDS011;57649;42.968;1.608;2023-07-13T03:42:40;4.38;;;2.40;;
70253;SDS011;57649;42.968;1.608;2023-07-13T03:45:05;3.55;;;2.30;;
70253;SDS011;57649;42.968;1.608;2023-07-13T03:47:31;3.85;;;2.50;;
70253;SDS011;57649;42.968;1.608;2023-07-13T03:49:57;6.43;;;2.50;;
70253;SDS011;57649;42.968;1.608;2023-07-13T03:52:22;5.72;;;2.65;;
70253;SDS011;57649;42.968;1.608;2023-07-13T03:54:48;3.92;;;2.65;;
70253;SDS011;57649;42.968;1.608;2023-07-13T03:57:13;3.08;;;2.58;;
70253;SDS011;57649;42.968;1.608;2023-07-13T03:59:38;5.30;;;2.40;;
70253;SDS011;57649;42.968;1.608;2023-07-13T04:02:04;3.45;;;2.35;;
70253;SDS011;57649;42.968;1.608;2023-07-13T04:04:30;3.97;;;2.83;;
70253;SDS011;57649;42.968;1.608;2023-07-13T04:06:55;3.13;;;2.33;;
70253;SDS011;57649;42.968;1.608;2023-07-13T04:09:23;3.55;;;2.55;;
70253;SDS011;57649;42.968;1.608;2023-07-13T04:11:49;5.25;;;2.40;;
70253;SDS011;57649;42.968;1.608;2023-07-13T04:14:15;7.15;;;2.88;;
70253;SDS011;57649;42.968;1.608;2023-07-13T04:16:40;5.05;;;2.42;;
70253;SDS011;57649;42.968;1.608;2023-07-13T04:19:06;4.03;;;2.50;;
70253;SDS011;57649;42.968;1.608;2023-07-13T04:21:32;4.25;;;2.55;;
70253;SDS011;57649;42.968;1.608;2023-07-13T04:23:58;4.20;;;2.45;;
70253;SDS011;57649;42.968;1.608;2023-07-13T04:26:23;3.83;;;2.40;;
70253;SDS011;57649;42.968;1.608;2023-07-13T04:28:49;3.67;;;2.65;;
70253;SDS011;57649;42.968;1.608;2023-07-13T04:31:15;7.30;;;2.67;;
70253;SDS011;57649;42.968;1.608;2023-07-13T04:33:41;5.30;;;2.70;;
70253;SDS011;57649;42.968;1.608;2023-07-13T04:36:08;4.28;;;3.10;;
70253;SDS011;57649;42.968;1.608;2023-07-13T04:38:34;3.95;;;2.90;;
70253;SDS011;57649;42.968;1.608;2023-07-13T04:41:00;6.63;;;3.50;;
70253;SDS011;57649;42.968;1.608;2023-07-13T04:43:28;5.75;;;3.22;;
70253;SDS011;57649;42.968;1.608;2023-07-13T04:45:55;8.18;;;3.10;;
70253;SDS011;57649;42.968;1.608;2023-07-13T04:48:21;4.75;;;2.90;;
70253;SDS011;57649;42.968;1.608;2023-07-13T04:50:47;3.75;;;2.95;;
70253;SDS011;57649;42.968;1.608;2023-07-13T04:53:18;4.30;;;3.00;;
70253;SDS011;57649;42.968;1.608;2023-07-13T04:55:44;4.13;;;2.90;;
70253;SDS011;57649;42.968;1.608;2023-07-13T04:58:09;7.18;;;3.10;;
70253;SDS011;57649;42.968;1.608;2023-07-13T05:00:34;4.85;;;3.08;;
70253;SDS011;57649;42.968;1.608;2023-07-13T05:03:00;3.75;;;2.83;;
70253;SDS011;57649;42.968;1.608;2023-07-13T05:05:25;4.53;;;2.90;;
70253;SDS011;57649;42.968;1.608;2023-07-13T05:07:52;7.22;;;3.35;;
70253;SDS011;57649;42.968;1.608;2023-07-13T05:10:18;4.82;;;2.47;;
70253;SDS011;57649;42.968;1.608;2023-07-13T05:12:44;6.35;;;3.03;;
70253;SDS011;57649;42.968;1.608;2023-07-13T05:15:10;4.07;;;2.75;;
70253;SDS011;57649;42.968;1.608;2023-07-13T05:17:35;3.65;;;2.55;;
70253;SDS011;57649;42.968;1.608;2023-07-13T05:20:01;4.30;;;2.70;;
70253;SDS011;57649;42.968;1.608;2023-07-13T05:22:26;7.10;;;3.55;;
70253;SDS011;57649;42.968;1.608;2023-07-13T05:24:52;5.18;;;3.30;;
70253;SDS011;57649;42.968;1.608;2023-07-13T05:27:17;8.75;;;3.08;;
70253;SDS011;57649;42.968;1.608;2023-07-13T05:29:43;6.85;;;3.08;;
70253;SDS011;57649;42.968;1.608;2023-07-13T05:32:09;4.30;;;2.33;;
70253;SDS011;57649;42.968;1.608;2023-07-13T05:34:34;4.80;;;2.58;;
70253;SDS011;57649;42.968;1.608;2023-07-13T05:36:59;4.68;;;2.53;;
70253;SDS011;57649;42.968;1.608;2023-07-13T05:39:25;7.07;;;3.03;;
70253;SDS011;57649;42.968;1.608;2023-07-13T05:41:52;7.40;;;2.60;;
70253;SDS011;57649;42.968;1.608;2023-07-13T05:44:17;6.38;;;2.97;;
70253;SDS011;57649;42.968;1.608;2023-07-13T05:46:44;5.30;;;2.50;;
70253;SDS011;57649;42.968;1.608;2023-07-13T05:49:09;7.22;;;2.35;;
70253;SDS011;57649;42.968;1.608;2023-07-13T05:51:35;4.88;;;2.35;;
70253;SDS011;57649;42.968;1.608;2023-07-13T05:54:00;5.75;;;2.75;;
70253;SDS011;57649;42.968;1.608;2023-07-13T05:56:25;4.57;;;2.63;;
70253;SDS011;57649;42.968;1.608;2023-07-13T05:58:51;4.45;;;3.38;;
70253;SDS011;57649;42.968;1.608;2023-07-13T06:01:17;4.35;;;2.78;;
70253;SDS011;57649;42.968;1.608;2023-07-13T06:03:42;5.53;;;2.50;;
70253;SDS011;57649;42.968;1.608;2023-07-13T06:06:09;5.03;;;2.40;;
70253;SDS011;57649;42.968;1.608;2023-07-13T06:08:35;3.72;;;2.55;;
70253;SDS011;57649;42.968;1.608;2023-07-13T06:11:06;5.47;;;3.63;;
70253;SDS011;57649;42.968;1.608;2023-07-13T06:13:42;4.43;;;2.70;;
70253;SDS011;57649;42.968;1.608;2023-07-13T06:16:08;3.85;;;2.28;;
70253;SDS011;57649;42.968;1.608;2023-07-13T06:18:34;5.80;;;2.20;;
70253;SDS011;57649;42.968;1.608;2023-07-13T06:21:00;3.85;;;2.30;;
70253;SDS011;57649;42.968;1.608;2023-07-13T06:23:30;3.38;;;2.45;;
70253;SDS011;57649;42.968;1.608;2023-07-13T06:25:55;5.32;;;2.20;;
70253;SDS011;57649;42.968;1.608;2023-07-13T06:28:21;4.05;;;2.72;;
70253;SDS011;57649;42.968;1.608;2023-07-13T06:30:46;2.65;;;1.70;;
70253;SDS011;57649;42.968;1.608;2023-07-13T06:33:12;11.10;;;3.50;;
70253;SDS011;57649;42.968;1.608;2023-07-13T06:35:37;4.20;;;2.40;;
70253;SDS011;57649;42.968;1.608;2023-07-13T06:38:03;8.13;;;2.20;;
70253;SDS011;57649;42.968;1.608;2023-07-13T06:40:29;3.90;;;1.92;;
70253;SDS011;57649;42.968;1.608;2023-07-13T06:42:55;5.10;;;2.20;;
70253;SDS011;57649;42.968;1.608;2023-07-13T06:45:20;2.78;;;2.05;;
70253;SDS011;57649;42.968;1.608;2023-07-13T06:47:46;6.63;;;2.63;;
70253;SDS011;57649;42.968;1.608;2023-07-13T06:50:11;6.88;;;2.60;;
70253;SDS011;57649;42.968;1.608;2023-07-13T06:52:37;3.67;;;2.28;;
70253;SDS011;57649;42.968;1.608;2023-07-13T06:55:02;7.85;;;2.28;;
70253;SDS011;57649;42.968;1.608;2023-07-13T06:57:28;5.40;;;2.42;;
70253;SDS011;57649;42.968;1.608;2023-07-13T06:59:53;5.18;;;2.03;;
70253;SDS011;57649;42.968;1.608;2023-07-13T07:02:19;5.85;;;2.38;;
70253;SDS011;57649;42.968;1.608;2023-07-13T07:04:44;5.93;;;2.55;;
70253;SDS011;57649;42.968;1.608;2023-07-13T07:07:10;3.85;;;2.22;;
70253;SDS011;57649;42.968;1.608;2023-07-13T07:09:35;5.55;;;2.00;;
70253;SDS011;57649;42.968;1.608;2023-07-13T07:12:01;6.90;;;2.05;;
70253;SDS011;57649;42.968;1.608;2023-07-13T07:14:28;5.18;;;2.20;;
70253;SDS011;57649;42.968;1.608;2023-07-13T07:16:53;4.82;;;2.53;;
70253;SDS011;57649;42.968;1.608;2023-07-13T07:19:18;7.03;;;2.58;;
70253;SDS011;57649;42.968;1.608;2023-07-13T07:21:44;4.70;;;2.30;;
70253;SDS011;57649;42.968;1.608;2023-07-13T07:24:09;3.38;;;2.10;;
70253;SDS011;57649;42.968;1.608;2023-07-13T07:26:35;8.15;;;2.80;;
70253;SDS011;57649;42.968;1.608;2023-07-13T07:29:00;6.28;;;2.13;;
70253;SDS011;57649;42.968;1.608;2023-07-13T07:31:25;3.10;;;2.28;;
70253;SDS011;57649;42.968;1.608;2023-07-13T07:33:51;5.00;;;2.53;;
70253;SDS011;57649;42.968;1.608;2023-07-13T07:36:16;3.95;;;2.15;;
70253;SDS011;57649;42.968;1.608;2023-07-13T07:38:42;3.13;;;2.38;;
70253;SDS011;57649;42.968;1.608;2023-07-13T07:41:08;5.53;;;2.55;;
70253;SDS011;57649;42.968;1.608;2023-07-13T07:43:34;5.30;;;2.58;;
70253;SDS011;57649;42.968;1.608;2023-07-13T07:45:59;3.63;;;2.17;;
70253;SDS011;57649;42.968;1.608;2023-07-13T07:48:24;4.68;;;2.08;;
70253;SDS011;57649;42.968;1.608;2023-07-13T07:50:50;3.90;;;2.63;;
70253;SDS011;57649;42.968;1.608;2023-07-13T07:53:15;4.78;;;2.00;;
70253;SDS011;57649;42.968;1.608;2023-07-13T07:55:41;6.07;;;2.42;;
70253;SDS011;57649;42.968;1.608;2023-07-13T07:58:06;4.43;;;2.15;;
70253;SDS011;57649;42.968;1.608;2023-07-13T08:00:32;7.75;;;2.45;;
70253;SDS011;57649;42.968;1.608;2023-07-13T08:02:58;6.43;;;2.42;;
70253;SDS011;57649;42.968;1.608;2023-07-13T08:05:24;4.65;;;2.10;;
70253;SDS011;57649;42.968;1.608;2023-07-13T08:07:49;3.45;;;2.38;;
70253;SDS011;57649;42.968;1.608;2023-07-13T08:10:15;7.13;;;3.17;;
70253;SDS011;57649;42.968;1.608;2023-07-13T08:12:41;6.47;;;2.83;;
70253;SDS011;57649;42.968;1.608;2023-07-13T08:15:09;5.35;;;2.20;;
70253;SDS011;57649;42.968;1.608;2023-07-13T08:17:37;5.65;;;2.30;;
70253;SDS011;57649;42.968;1.608;2023-07-13T08:20:03;4.20;;;2.28;;
70253;SDS011;57649;42.968;1.608;2023-07-13T08:22:29;8.00;;;2.65;;
70253;SDS011;57649;42.968;1.608;2023-07-13T08:24:54;4.97;;;2.47;;
70253;SDS011;57649;42.968;1.608;2023-07-13T08:27:23;5.72;;;3.33;;
70253;SDS011;57649;42.968;1.608;2023-07-13T08:29:49;4.75;;;2.22;;
70253;SDS011;57649;42.968;1.608;2023-07-13T08:32:15;5.00;;;2.42;;
70253;SDS011;57649;42.968;1.608;2023-07-13T08:34:40;9.45;;;2.50;;
70253;SDS011;57649;42.968;1.608;2023-07-13T08:37:06;7.13;;;2.13;;
70253;SDS011;57649;42.968;1.608;2023-07-13T08:39:32;8.07;;;2.90;;
70253;SDS011;57649;42.968;1.608;2023-07-13T08:45:17;5.25;;;2.10;;
70253;SDS011;57649;42.968;1.608;2023-07-13T08:50:41;7.85;;;2.53;;
70253;SDS011;57649;42.968;1.608;2023-07-13T08:53:16;8.10;;;2.03;;
70253;SDS011;57649;42.968;1.608;2023-07-13T08:55:42;7.70;;;1.80;;
70253;SDS011;57649;42.968;1.608;2023-07-13T08:58:12;4.57;;;1.90;;
70253;SDS011;57649;42.968;1.608;2023-07-13T09:00:44;8.52;;;2.03;;
70253;SDS011;57649;42.968;1.608;2023-07-13T09:03:23;4.82;;;2.10;;
70253;SDS011;57649;42.968;1.608;2023-07-13T09:05:56;2.40;;;1.83;;
70253;SDS011;57649;42.968;1.608;2023-07-13T09:17:00;4.10;;;2.30;;
70253;SDS011;57649;42.968;1.608;2023-07-13T09:19:30;3.38;;;2.40;;
70253;SDS011;57649;42.968;1.608;2023-07-13T09:22:01;3.63;;;2.15;;
70253;SDS011;57649;42.968;1.608;2023-07-13T09:24:41;4.80;;;1.58;;
70253;SDS011;57649;42.968;1.608;2023-07-13T09:27:19;6.22;;;1.58;;
70253;SDS011;57649;42.968;1.608;2023-07-13T09:29:48;4.13;;;1.85;;
70253;SDS011;57649;42.968;1.608;2023-07-13T09:32:19;4.45;;;1.80;;
70253;SDS011;57649;42.968;1.608;2023-07-13T09:34:51;5.43;;;2.40;;
70253;SDS011;57649;42.968;1.608;2023-07-13T09:37:19;9.32;;;2.40;;
70253;SDS011;57649;42.968;1.608;2023-07-13T09:39:48;3.88;;;1.50;;
70253;SDS011;57649;42.968;1.608;2023-07-13T09:47:16;3.92;;;1.60;;
70253;SDS011;57649;42.968;1.608;2023-07-13T09:49:43;7.53;;;1.55;;
70253;SDS011;57649;42.968;1.608;2023-07-13T09:52:14;4.50;;;1.50;;
70253;SDS011;57649;42.968;1.608;2023-07-13T09:54:43;5.57;;;1.73;;
70253;SDS011;57649;42.968;1.608;2023-07-13T09:57:17;3.90;;;1.48;;
70253;SDS011;57649;42.968;1.608;2023-07-13T09:59:49;3.63;;;1.52;;
70253;SDS011;57649;42.968;1.608;2023-07-13T10:04:53;2.78;;;1.50;;
70253;SDS011;57649;42.968;1.608;2023-07-13T10:07:25;3.00;;;1.45;;
70253;SDS011;57649;42.968;1.608;2023-07-13T10:09:52;3.20;;;1.80;;
70253;SDS011;57649;42.968;1.608;2023-07-13T10:12:19;2.97;;;1.30;;
70253;SDS011;57649;42.968;1.608;2023-07-13T10:14:44;4.13;;;1.52;;
70253;SDS011;57649;42.968;1.608;2023-07-13T10:17:10;8.02;;;3.90;;
70253;SDS011;57649;42.968;1.608;2023-07-13T10:19:39;4.50;;;1.47;;
70253;SDS011;57649;42.968;1.608;2023-07-13T10:24:39;2.80;;;1.40;;
70253;SDS011;57649;42.968;1.608;2023-07-13T10:27:16;4.20;;;1.92;;
70253;SDS011;57649;42.968;1.608;2023-07-13T10:30:09;3.13;;;1.40;;
70253;SDS011;57649;42.968;1.608;2023-07-13T10:32:40;4.65;;;1.50;;
70253;SDS011;57649;42.968;1.608;2023-07-13T10:35:08;5.72;;;1.85;;
70253;SDS011;57649;42.968;1.608;2023-07-13T10:37:44;3.55;;;2.22;;
70253;SDS011;57649;42.968;1.608;2023-07-13T10:40:16;3.00;;;1.30;;
70253;SDS011;57649;42.968;1.608;2023-07-13T10:42:48;4.72;;;1.20;;
70253;SDS011;57649;42.968;1.608;2023-07-13T10:45:18;4.30;;;1.48;;
70253;SDS011;57649;42.968;1.608;2023-07-13T10:47:46;3.17;;;1.30;;
70253;SDS011;57649;42.968;1.608;2023-07-13T10:50:19;6.15;;;1.30;;
70253;SDS011;57649;42.968;1.608;2023-07-13T10:52:51;1.80;;;1.15;;
70253;SDS011;57649;42.968;1.608;2023-07-13T10:58:24;3.80;;;1.48;;
70253;SDS011;57649;42.968;1.608;2023-07-13T11:03:25;5.18;;;1.48;;
70253;SDS011;57649;42.968;1.608;2023-07-13T11:06:04;2.70;;;1.23;;
70253;SDS011;57649;42.968;1.608;2023-07-13T11:10:56;4.65;;;1.40;;
70253;SDS011;57649;42.968;1.608;2023-07-13T11:18:50;4.35;;;1.20;;
70253;SDS011;57649;42.968;1.608;2023-07-13T11:21:22;2.70;;;1.10;;
70253;SDS011;57649;42.968;1.608;2023-07-13T11:24:01;3.75;;;1.60;;
70253;SDS011;57649;42.968;1.608;2023-07-13T11:26:50;2.20;;;1.23;;
70253;SDS011;57649;42.968;1.608;2023-07-13T11:31:54;3.92;;;1.20;;
70253;SDS011;57649;42.968;1.608;2023-07-13T11:34:24;2.42;;;0.95;;
70253;SDS011;57649;42.968;1.608;2023-07-13T11:36:55;2.35;;;1.15;;
70253;SDS011;57649;42.968;1.608;2023-07-13T11:39:29;2.72;;;1.20;;
70253;SDS011;57649;42.968;1.608;2023-07-13T11:41:59;1.52;;;1.08;;
70253;SDS011;57649;42.968;1.608;2023-07-13T11:44:28;3.47;;;1.30;;
70253;SDS011;57649;42.968;1.608;2023-07-13T11:47:00;3.83;;;1.23;;
70253;SDS011;57649;42.968;1.608;2023-07-13T11:49:48;6.50;;;1.30;;
70253;SDS011;57649;42.968;1.608;2023-07-13T11:52:17;2.50;;;1.17;;
70253;SDS011;57649;42.968;1.608;2023-07-13T11:54:52;3.40;;;1.20;;
70253;SDS011;57649;42.968;1.608;2023-07-13T11:59:52;3.25;;;1.17;;
70253;SDS011;57649;42.968;1.608;2023-07-13T12:02:28;2.38;;;1.05;;
70253;SDS011;57649;42.968;1.608;2023-07-13T12:04:56;5.65;;;1.50;;
70253;SDS011;57649;42.968;1.608;2023-07-13T12:07:22;3.22;;;1.55;;
70253;SDS011;57649;42.968;1.608;2023-07-13T12:09:48;3.88;;;1.50;;
70253;SDS011;57649;42.968;1.608;2023-07-13T12:12:27;3.70;;;1.25;;
70253;SDS011;57649;42.968;1.608;2023-07-13T12:14:54;3.90;;;1.40;;
70253;SDS011;57649;42.968;1.608;2023-07-13T12:17:21;4.10;;;1.45;;
70253;SDS011;57649;42.968;1.608;2023-07-13T12:19:48;3.85;;;1.15;;
70253;SDS011;57649;42.968;1.608;2023-07-13T12:22:16;2.85;;;1.23;;
70253;SDS011;57649;42.968;1.608;2023-07-13T12:24:43;3.83;;;1.85;;
70253;SDS011;57649;42.968;1.608;2023-07-13T12:27:16;6.55;;;1.48;;
70253;SDS011;57649;42.968;1.608;2023-07-13T12:32:27;3.05;;;1.25;;
70253;SDS011;57649;42.968;1.608;2023-07-13T12:34:53;5.38;;;1.60;;
70253;SDS011;57649;42.968;1.608;2023-07-13T12:37:21;2.65;;;1.30;;
70253;SDS011;57649;42.968;1.608;2023-07-13T12:39:47;2.92;;;1.30;;
70253;SDS011;57649;42.968;1.608;2023-07-13T12:47:22;3.00;;;1.50;;
70253;SDS011;57649;42.968;1.608;2023-07-13T12:49:49;3.97;;;1.83;;
70253;SDS011;57649;42.968;1.608;2023-07-13T12:52:22;1.98;;;1.15;;
70253;SDS011;57649;42.968;1.608;2023-07-13T12:54:59;4.05;;;1.30;;
70253;SDS011;57649;42.968;1.608;2023-07-13T12:57:30;4.93;;;1.48;;
70253;SDS011;57649;42.968;1.608;2023-07-13T12:59:55;4.57;;;1.30;;
70253;SDS011;57649;42.968;1.608;2023-07-13T13:02:26;3.25;;;1.10;;
70253;SDS011;57649;42.968;1.608;2023-07-13T13:04:55;3.67;;;1.38;;
70253;SDS011;57649;42.968;1.608;2023-07-13T13:07:23;4.57;;;1.30;;
70253;SDS011;57649;42.968;1.608;2023-07-13T13:09:49;3.63;;;0.93;;
70253;SDS011;57649;42.968;1.608;2023-07-13T13:12:14;2.50;;;1.15;;
70253;SDS011;57649;42.968;1.608;2023-07-13T13:14:40;3.65;;;1.20;;
70253;SDS011;57649;42.968;1.608;2023-07-13T13:17:14;3.50;;;1.40;;
70253;SDS011;57649;42.968;1.608;2023-07-13T13:19:44;4.38;;;1.45;;
70253;SDS011;57649;42.968;1.608;2023-07-13T13:22:10;3.53;;;1.25;;
70253;SDS011;57649;42.968;1.608;2023-07-13T13:24:36;3.13;;;1.27;;
70253;SDS011;57649;42.968;1.608;2023-07-13T13:27:01;4.63;;;1.50;;
70253;SDS011;57649;42.968;1.608;2023-07-13T13:29:27;2.58;;;1.20;;
70253;SDS011;57649;42.968;1.608;2023-07-13T13:31:56;3.42;;;1.10;;
70253;SDS011;57649;42.968;1.608;2023-07-13T13:34:22;2.20;;;1.10;;
70253;SDS011;57649;42.968;1.608;2023-07-13T13:36:49;3.88;;;1.80;;
70253;SDS011;57649;42.968;1.608;2023-07-13T13:39:20;1.90;;;1.17;;
70253;SDS011;57649;42.968;1.608;2023-07-13T13:41:47;1.90;;;1.10;;
70253;SDS011;57649;42.968;1.608;2023-07-13T13:44:15;2.60;;;1.27;;
70253;SDS011;57649;42.968;1.608;2023-07-13T13:46:41;4.25;;;1.50;;
70253;SDS011;57649;42.968;1.608;2023-07-13T13:49:13;2.83;;;1.30;;
70253;SDS011;57649;42.968;1.608;2023-07-13T13:51:41;3.65;;;1.33;;
70253;SDS011;57649;42.968;1.608;2023-07-13T13:54:09;3.65;;;1.10;;
70253;SDS011;57649;42.968;1.608;2023-07-13T13:56:37;3.35;;;1.20;;
70253;SDS011;57649;42.968;1.608;2023-07-13T13:59:02;3.40;;;1.10;;
70253;SDS011;57649;42.968;1.608;2023-07-13T14:01:29;3.55;;;1.23;;
70253;SDS011;57649;42.968;1.608;2023-07-13T14:03:56;2.90;;;1.10;;
70253;SDS011;57649;42.968;1.608;2023-07-13T14:06:22;4.80;;;1.70;;
70253;SDS011;57649;42.968;1.608;2023-07-13T14:08:47;3.63;;;1.58;;
70253;SDS011;57649;42.968;1.608;2023-07-13T14:11:13;6.47;;;1.30;;
70253;SDS011;57649;42.968;1.608;2023-07-13T14:13:42;1.90;;;1.03;;
70253;SDS011;57649;42.968;1.608;2023-07-13T14:16:12;2.30;;;1.17;;
70253;SDS011;57649;42.968;1.608;2023-07-13T14:18:45;4.25;;;1.77;;
70253;SDS011;57649;42.968;1.608;2023-07-13T14:21:12;4.50;;;1.48;;
70253;SDS011;57649;42.968;1.608;2023-07-13T14:23:39;3.83;;;1.75;;
70253;SDS011;57649;42.968;1.608;2023-07-13T14:26:11;10.00;;;2.03;;
70253;SDS011;57649;42.968;1.608;2023-07-13T14:28:41;2.80;;;1.27;;
70253;SDS011;57649;42.968;1.608;2023-07-13T14:31:09;3.00;;;1.55;;
70253;SDS011;57649;42.968;1.608;2023-07-13T14:33:35;3.47;;;1.30;;
70253;SDS011;57649;42.968;1.608;2023-07-13T14:36:01;1.67;;;1.02;;
70253;SDS011;57649;42.968;1.608;2023-07-13T14:38:27;3.67;;;1.45;;
70253;SDS011;57649;42.968;1.608;2023-07-13T14:40:53;5.05;;;1.30;;
70253;SDS011;57649;42.968;1.608;2023-07-13T14:43:18;3.10;;;1.00;;
70253;SDS011;57649;42.968;1.608;2023-07-13T14:45:44;2.55;;;1.13;;
70253;SDS011;57649;42.968;1.608;2023-07-13T14:48:16;2.95;;;1.35;;
70253;SDS011;57649;42.968;1.608;2023-07-13T14:50:49;5.25;;;2.08;;
70253;SDS011;57649;42.968;1.608;2023-07-13T14:53:18;2.80;;;1.45;;
70253;SDS011;57649;42.968;1.608;2023-07-13T14:55:43;3.60;;;1.50;;
70253;SDS011;57649;42.968;1.608;2023-07-13T14:58:09;4.82;;;1.50;;
70253;SDS011;57649;42.968;1.608;2023-07-13T15:00:35;3.45;;;1.20;;
70253;SDS011;57649;42.968;1.608;2023-07-13T15:03:00;2.58;;;1.23;;
70253;SDS011;57649;42.968;1.608;2023-07-13T15:05:28;5.88;;;1.20;;
70253;SDS011;57649;42.968;1.608;2023-07-13T15:07:56;6.97;;;2.05;;
70253;SDS011;57649;42.968;1.608;2023-07-13T15:10:25;6.13;;;1.67;;
70253;SDS011;57649;42.968;1.608;2023-07-13T15:12:53;3.33;;;1.13;;
70253;SDS011;57649;42.968;1.608;2023-07-13T15:15:22;8.95;;;2.03;;
70253;SDS011;57649;42.968;1.608;2023-07-13T15:17:48;2.63;;;1.65;;
70253;SDS011;57649;42.968;1.608;2023-07-13T15:22:48;2.78;;;1.30;;
70253;SDS011;57649;42.968;1.608;2023-07-13T15:25:16;5.03;;;1.63;;
70253;SDS011;57649;42.968;1.608;2023-07-13T15:27:46;4.65;;;1.23;;
70253;SDS011;57649;42.968;1.608;2023-07-13T15:30:12;3.80;;;1.67;;
70253;SDS011;57649;42.968;1.608;2023-07-13T15:32:39;3.13;;;1.25;;
70253;SDS011;57649;42.968;1.608;2023-07-13T15:35:05;2.58;;;1.52;;
70253;SDS011;57649;42.968;1.608;2023-07-13T15:37:37;5.22;;;1.42;;
70253;SDS011;57649;42.968;1.608;2023-07-13T15:40:03;3.88;;;1.42;;
70253;SDS011;57649;42.968;1.608;2023-07-13T15:42:28;4.20;;;1.70;;